sensor_id;sensor_type;location;lat;lon;timestamp;P1;durP1;ratioP1;P2;durP2;ratioP2
76867;SDS011;66168;45.478;11.060;2023-02-03T00:01:01;9.80;;;7.20;;
76867;SDS011;66168;45.478;11.060;2023-02-03T00:03:29;12.50;;;7.00;;
76867;SDS011;66168;45.478;11.060;2023-02-03T00:05:55;10.60;;;6.50;;
76867;SDS011;66168;45.478;11.060;2023-02-03T00:08:22;12.40;;;6.80;;
76867;SDS011;66168;45.478;11.060;2023-02-03T00:10:49;12.70;;;8.00;;
76867;SDS011;66168;45.478;11.060;2023-02-03T00:13:16;10.60;;;6.00;;
76867;SDS011;66168;45.478;11.060;2023-02-03T00:15:43;9.90;;;6.30;;
76867;SDS011;66168;45.478;11.060;2023-02-03T00:18:09;8.70;;;5.60;;
76867;SDS011;66168;45.478;11.060;2023-02-03T00:20:36;8.10;;;5.80;;
76867;SDS011;66168;45.478;11.060;2023-02-03T00:23:03;11.50;;;6.70;;
76867;SDS011;66168;45.478;11.060;2023-02-03T00:25:31;11.10;;;6.90;;
76867;SDS011;66168;45.478;11.060;2023-02-03T00:27:58;11.20;;;6.30;;
76867;SDS011;66168;45.478;11.060;2023-02-03T00:30:24;9.30;;;6.50;;
76867;SDS011;66168;45.478;11.060;2023-02-03T00:32:52;8.50;;;5.40;;
76867;SDS011;66168;45.478;11.060;2023-02-03T00:35:19;9.00;;;5.40;;
76867;SDS011;66168;45.478;11.060;2023-02-03T00:37:50;11.20;;;6.40;;
76867;SDS011;66168;45.478;11.060;2023-02-03T00:40:20;14.30;;;8.20;;
76867;SDS011;66168;45.478;11.060;2023-02-03T00:42:49;12.70;;;8.20;;
76867;SDS011;66168;45.478;11.060;2023-02-03T00:45:15;11.80;;;7.20;;
76867;SDS011;66168;45.478;11.060;2023-02-03T00:47:42;14.90;;;7.80;;
76867;SDS011;66168;45.478;11.060;2023-02-03T00:50:09;13.60;;;8.40;;
76867;SDS011;66168;45.478;11.060;2023-02-03T00:52:36;13.50;;;7.80;;
76867;SDS011;66168;45.478;11.060;2023-02-03T00:55:03;14.80;;;7.70;;
76867;SDS011;66168;45.478;11.060;2023-02-03T00:57:31;13.80;;;8.00;;
76867;SDS011;66168;45.478;11.060;2023-02-03T00:59:58;12.50;;;7.40;;
76867;SDS011;66168;45.478;11.060;2023-02-03T01:02:24;13.40;;;8.60;;
76867;SDS011;66168;45.478;11.060;2023-02-03T01:04:51;16.20;;;8.70;;
76867;SDS011;66168;45.478;11.060;2023-02-03T01:07:18;17.40;;;10.00;;
76867;SDS011;66168;45.478;11.060;2023-02-03T01:09:44;19.60;;;10.60;;
76867;SDS011;66168;45.478;11.060;2023-02-03T01:12:11;20.80;;;10.80;;
76867;SDS011;66168;45.478;11.060;2023-02-03T01:14:39;18.70;;;10.40;;
76867;SDS011;66168;45.478;11.060;2023-02-03T01:17:05;16.90;;;8.70;;
76867;SDS011;66168;45.478;11.060;2023-02-03T01:19:33;17.50;;;9.60;;
76867;SDS011;66168;45.478;11.060;2023-02-03T01:22:00;30.40;;;15.40;;
76867;SDS011;66168;45.478;11.060;2023-02-03T01:24:28;29.00;;;15.70;;
76867;SDS011;66168;45.478;11.060;2023-02-03T01:26:56;36.60;;;20.80;;
76867;SDS011;66168;45.478;11.060;2023-02-03T01:29:23;40.00;;;20.90;;
76867;SDS011;66168;45.478;11.060;2023-02-03T01:31:50;30.20;;;16.90;;
76867;SDS011;66168;45.478;11.060;2023-02-03T01:34:16;35.50;;;18.30;;
76867;SDS011;66168;45.478;11.060;2023-02-03T01:36:43;37.40;;;17.90;;
76867;SDS011;66168;45.478;11.060;2023-02-03T01:39:12;40.50;;;20.70;;
76867;SDS011;66168;45.478;11.060;2023-02-03T01:41:40;38.00;;;20.20;;
76867;SDS011;66168;45.478;11.060;2023-02-03T01:49:55;39.70;;;19.00;;
76867;SDS011;66168;45.478;11.060;2023-02-03T01:52:45;39.10;;;19.40;;
76867;SDS011;66168;45.478;11.060;2023-02-03T01:55:16;36.00;;;18.70;;
76867;SDS011;66168;45.478;11.060;2023-02-03T01:57:50;36.70;;;19.10;;
76867;SDS011;66168;45.478;11.060;2023-02-03T02:00:19;42.40;;;21.20;;
76867;SDS011;66168;45.478;11.060;2023-02-03T02:02:46;35.20;;;18.60;;
76867;SDS011;66168;45.478;11.060;2023-02-03T02:05:31;39.20;;;20.80;;
76867;SDS011;66168;45.478;11.060;2023-02-03T02:08:03;37.50;;;18.30;;
76867;SDS011;66168;45.478;11.060;2023-02-03T02:10:33;36.10;;;18.10;;
76867;SDS011;66168;45.478;11.060;2023-02-03T02:13:00;45.20;;;23.20;;
76867;SDS011;66168;45.478;11.060;2023-02-03T02:42:57;36.90;;;18.40;;
76867;SDS011;66168;45.478;11.060;2023-02-03T02:45:35;38.30;;;20.10;;
76867;SDS011;66168;45.478;11.060;2023-02-03T02:48:28;38.50;;;19.70;;
76867;SDS011;66168;45.478;11.060;2023-02-03T02:51:02;38.30;;;19.30;;
76867;SDS011;66168;45.478;11.060;2023-02-03T02:53:32;36.50;;;17.40;;
76867;SDS011;66168;45.478;11.060;2023-02-03T02:56:04;29.80;;;16.40;;
76867;SDS011;66168;45.478;11.060;2023-02-03T02:58:36;30.90;;;16.50;;
76867;SDS011;66168;45.478;11.060;2023-02-03T03:01:07;34.20;;;18.00;;
76867;SDS011;66168;45.478;11.060;2023-02-03T03:03:36;37.80;;;18.00;;
76867;SDS011;66168;45.478;11.060;2023-02-03T03:06:07;33.40;;;16.60;;
76867;SDS011;66168;45.478;11.060;2023-02-03T03:08:52;24.90;;;15.20;;
76867;SDS011;66168;45.478;11.060;2023-02-03T03:11:23;29.50;;;16.70;;
76867;SDS011;66168;45.478;11.060;2023-02-03T03:13:54;40.60;;;20.10;;
76867;SDS011;66168;45.478;11.060;2023-02-03T03:16:23;43.80;;;22.80;;
76867;SDS011;66168;45.478;11.060;2023-02-03T03:18:55;53.20;;;26.10;;
76867;SDS011;66168;45.478;11.060;2023-02-03T03:21:29;62.60;;;30.20;;
76867;SDS011;66168;45.478;11.060;2023-02-03T03:24:01;57.30;;;28.50;;
76867;SDS011;66168;45.478;11.060;2023-02-03T03:29:17;51.40;;;25.20;;
76867;SDS011;66168;45.478;11.060;2023-02-03T03:34:14;47.50;;;24.40;;
76867;SDS011;66168;45.478;11.060;2023-02-03T03:39:21;42.40;;;21.80;;
76867;SDS011;66168;45.478;11.060;2023-02-03T03:42:46;38.80;;;19.10;;
76867;SDS011;66168;45.478;11.060;2023-02-03T03:45:06;40.60;;;20.50;;
76867;SDS011;66168;45.478;11.060;2023-02-03T03:47:56;40.20;;;22.20;;
76867;SDS011;66168;45.478;11.060;2023-02-03T03:50:25;37.80;;;20.20;;
76867;SDS011;66168;45.478;11.060;2023-02-03T03:52:56;39.60;;;20.00;;
76867;SDS011;66168;45.478;11.060;2023-02-03T03:55:26;45.90;;;22.60;;
76867;SDS011;66168;45.478;11.060;2023-02-03T03:58:00;44.70;;;21.30;;
76867;SDS011;66168;45.478;11.060;2023-02-03T04:00:31;38.30;;;19.40;;
76867;SDS011;66168;45.478;11.060;2023-02-03T04:03:01;43.30;;;22.00;;
76867;SDS011;66168;45.478;11.060;2023-02-03T04:05:32;48.00;;;23.20;;
76867;SDS011;66168;45.478;11.060;2023-02-03T04:08:00;48.20;;;24.40;;
76867;SDS011;66168;45.478;11.060;2023-02-03T04:10:30;51.90;;;24.30;;
76867;SDS011;66168;45.478;11.060;2023-02-03T04:12:58;41.00;;;21.40;;
76867;SDS011;66168;45.478;11.060;2023-02-03T04:15:25;46.90;;;25.00;;
76867;SDS011;66168;45.478;11.060;2023-02-03T04:17:52;50.10;;;25.30;;
76867;SDS011;66168;45.478;11.060;2023-02-03T04:20:20;46.10;;;22.50;;
76867;SDS011;66168;45.478;11.060;2023-02-03T04:22:46;45.50;;;21.60;;
76867;SDS011;66168;45.478;11.060;2023-02-03T04:25:13;46.60;;;22.60;;
76867;SDS011;66168;45.478;11.060;2023-02-03T04:27:39;45.20;;;24.80;;
76867;SDS011;66168;45.478;11.060;2023-02-03T04:30:06;46.90;;;25.10;;
76867;SDS011;66168;45.478;11.060;2023-02-03T04:32:34;45.20;;;23.70;;
76867;SDS011;66168;45.478;11.060;2023-02-03T04:35:01;44.90;;;23.90;;
76867;SDS011;66168;45.478;11.060;2023-02-03T04:37:30;49.00;;;22.90;;
76867;SDS011;66168;45.478;11.060;2023-02-03T04:39:57;47.50;;;23.30;;
76867;SDS011;66168;45.478;11.060;2023-02-03T04:42:23;38.90;;;21.70;;
76867;SDS011;66168;45.478;11.060;2023-02-03T04:44:51;40.40;;;21.20;;
76867;SDS011;66168;45.478;11.060;2023-02-03T04:47:18;46.90;;;25.00;;
76867;SDS011;66168;45.478;11.060;2023-02-03T04:49:45;43.00;;;21.30;;
76867;SDS011;66168;45.478;11.060;2023-02-03T04:52:12;43.10;;;22.10;;
76867;SDS011;66168;45.478;11.060;2023-02-03T04:54:39;40.70;;;21.50;;
76867;SDS011;66168;45.478;11.060;2023-02-03T04:57:06;43.10;;;22.30;;
76867;SDS011;66168;45.478;11.060;2023-02-03T04:59:33;42.60;;;21.40;;
76867;SDS011;66168;45.478;11.060;2023-02-03T05:02:02;54.60;;;24.50;;
76867;SDS011;66168;45.478;11.060;2023-02-03T05:04:33;46.60;;;24.10;;
76867;SDS011;66168;45.478;11.060;2023-02-03T05:07:00;52.90;;;26.50;;
76867;SDS011;66168;45.478;11.060;2023-02-03T05:09:27;48.00;;;24.70;;
76867;SDS011;66168;45.478;11.060;2023-02-03T05:11:54;46.40;;;22.10;;
76867;SDS011;66168;45.478;11.060;2023-02-03T05:14:20;44.40;;;22.30;;
76867;SDS011;66168;45.478;11.060;2023-02-03T05:16:47;42.30;;;21.30;;
76867;SDS011;66168;45.478;11.060;2023-02-03T05:19:13;43.00;;;20.80;;
76867;SDS011;66168;45.478;11.060;2023-02-03T05:21:40;43.60;;;20.90;;
76867;SDS011;66168;45.478;11.060;2023-02-03T05:24:06;46.60;;;22.90;;
76867;SDS011;66168;45.478;11.060;2023-02-03T05:26:34;44.60;;;22.50;;
76867;SDS011;66168;45.478;11.060;2023-02-03T05:29:01;37.00;;;19.70;;
76867;SDS011;66168;45.478;11.060;2023-02-03T05:31:29;39.30;;;20.70;;
76867;SDS011;66168;45.478;11.060;2023-02-03T05:33:55;39.10;;;21.10;;
76867;SDS011;66168;45.478;11.060;2023-02-03T05:36:22;42.30;;;19.40;;
76867;SDS011;66168;45.478;11.060;2023-02-03T05:38:49;34.60;;;18.50;;
76867;SDS011;66168;45.478;11.060;2023-02-03T05:41:15;38.50;;;19.80;;
76867;SDS011;66168;45.478;11.060;2023-02-03T05:44:01;32.50;;;18.30;;
76867;SDS011;66168;45.478;11.060;2023-02-03T05:46:27;38.00;;;17.90;;
76867;SDS011;66168;45.478;11.060;2023-02-03T05:48:54;36.00;;;18.80;;
76867;SDS011;66168;45.478;11.060;2023-02-03T05:51:20;34.20;;;18.40;;
76867;SDS011;66168;45.478;11.060;2023-02-03T05:53:47;37.40;;;21.70;;
76867;SDS011;66168;45.478;11.060;2023-02-03T05:56:13;36.00;;;18.00;;
76867;SDS011;66168;45.478;11.060;2023-02-03T05:58:40;33.70;;;18.30;;
76867;SDS011;66168;45.478;11.060;2023-02-03T06:01:06;52.30;;;25.20;;
76867;SDS011;66168;45.478;11.060;2023-02-03T06:03:33;57.60;;;27.50;;
76867;SDS011;66168;45.478;11.060;2023-02-03T06:06:00;63.70;;;29.50;;
76867;SDS011;66168;45.478;11.060;2023-02-03T06:08:26;47.10;;;23.50;;
76867;SDS011;66168;45.478;11.060;2023-02-03T06:11:00;45.60;;;22.40;;
76867;SDS011;66168;45.478;11.060;2023-02-03T06:13:27;40.40;;;19.80;;
76867;SDS011;66168;45.478;11.060;2023-02-03T06:15:54;47.80;;;22.40;;
76867;SDS011;66168;45.478;11.060;2023-02-03T06:18:21;50.10;;;24.30;;
76867;SDS011;66168;45.478;11.060;2023-02-03T06:20:48;48.70;;;24.30;;
76867;SDS011;66168;45.478;11.060;2023-02-03T06:23:16;53.60;;;25.20;;
76867;SDS011;66168;45.478;11.060;2023-02-03T06:25:44;49.90;;;24.80;;
76867;SDS011;66168;45.478;11.060;2023-02-03T06:28:13;46.10;;;24.60;;
76867;SDS011;66168;45.478;11.060;2023-02-03T06:30:41;55.10;;;25.10;;
76867;SDS011;66168;45.478;11.060;2023-02-03T06:33:08;45.60;;;22.50;;
76867;SDS011;66168;45.478;11.060;2023-02-03T06:35:35;48.90;;;24.00;;
76867;SDS011;66168;45.478;11.060;2023-02-03T06:38:02;59.60;;;26.50;;
76867;SDS011;66168;45.478;11.060;2023-02-03T06:40:28;61.60;;;28.50;;
76867;SDS011;66168;45.478;11.060;2023-02-03T06:42:56;56.90;;;27.10;;
76867;SDS011;66168;45.478;11.060;2023-02-03T06:45:22;46.20;;;24.80;;
76867;SDS011;66168;45.478;11.060;2023-02-03T06:47:50;58.10;;;29.30;;
76867;SDS011;66168;45.478;11.060;2023-02-03T06:50:17;51.70;;;24.70;;
76867;SDS011;66168;45.478;11.060;2023-02-03T06:52:44;57.80;;;29.40;;
76867;SDS011;66168;45.478;11.060;2023-02-03T06:55:10;97.10;;;48.20;;
76867;SDS011;66168;45.478;11.060;2023-02-03T06:57:44;73.00;;;38.30;;
76867;SDS011;66168;45.478;11.060;2023-02-03T07:00:12;58.50;;;29.40;;
76867;SDS011;66168;45.478;11.060;2023-02-03T07:02:44;64.00;;;31.70;;
76867;SDS011;66168;45.478;11.060;2023-02-03T07:05:11;96.00;;;47.10;;
76867;SDS011;66168;45.478;11.060;2023-02-03T07:07:38;64.10;;;31.00;;
76867;SDS011;66168;45.478;11.060;2023-02-03T07:10:04;49.80;;;24.60;;
76867;SDS011;66168;45.478;11.060;2023-02-03T07:12:32;45.10;;;21.90;;
76867;SDS011;66168;45.478;11.060;2023-02-03T07:14:59;48.40;;;25.20;;
76867;SDS011;66168;45.478;11.060;2023-02-03T07:17:25;47.50;;;24.40;;
76867;SDS011;66168;45.478;11.060;2023-02-03T07:19:52;53.30;;;26.40;;
76867;SDS011;66168;45.478;11.060;2023-02-03T07:22:18;53.80;;;26.10;;
76867;SDS011;66168;45.478;11.060;2023-02-03T07:24:45;55.70;;;26.50;;
76867;SDS011;66168;45.478;11.060;2023-02-03T07:27:12;49.00;;;24.80;;
76867;SDS011;66168;45.478;11.060;2023-02-03T07:29:39;47.90;;;24.50;;
76867;SDS011;66168;45.478;11.060;2023-02-03T07:32:05;47.40;;;23.50;;
76867;SDS011;66168;45.478;11.060;2023-02-03T07:34:32;44.50;;;24.40;;
76867;SDS011;66168;45.478;11.060;2023-02-03T07:36:59;48.30;;;24.50;;
76867;SDS011;66168;45.478;11.060;2023-02-03T07:39:25;44.80;;;23.60;;
76867;SDS011;66168;45.478;11.060;2023-02-03T07:41:52;51.70;;;25.40;;
76867;SDS011;66168;45.478;11.060;2023-02-03T07:44:20;50.20;;;24.90;;
76867;SDS011;66168;45.478;11.060;2023-02-03T07:46:47;45.70;;;24.40;;
76867;SDS011;66168;45.478;11.060;2023-02-03T07:49:13;44.10;;;23.50;;
76867;SDS011;66168;45.478;11.060;2023-02-03T07:51:40;47.00;;;24.80;;
76867;SDS011;66168;45.478;11.060;2023-02-03T07:54:07;48.20;;;23.90;;
76867;SDS011;66168;45.478;11.060;2023-02-03T07:56:33;41.10;;;23.40;;
76867;SDS011;66168;45.478;11.060;2023-02-03T07:59:00;42.70;;;21.70;;
76867;SDS011;66168;45.478;11.060;2023-02-03T08:01:27;49.20;;;24.60;;
76867;SDS011;66168;45.478;11.060;2023-02-03T08:03:54;42.00;;;23.30;;
76867;SDS011;66168;45.478;11.060;2023-02-03T08:06:21;46.10;;;22.60;;
76867;SDS011;66168;45.478;11.060;2023-02-03T08:08:48;45.20;;;21.30;;
76867;SDS011;66168;45.478;11.060;2023-02-03T08:11:15;58.70;;;30.30;;
76867;SDS011;66168;45.478;11.060;2023-02-03T08:13:41;56.60;;;25.60;;
76867;SDS011;66168;45.478;11.060;2023-02-03T08:16:08;54.10;;;26.20;;
76867;SDS011;66168;45.478;11.060;2023-02-03T08:18:35;45.30;;;24.50;;
76867;SDS011;66168;45.478;11.060;2023-02-03T08:21:01;46.90;;;24.30;;
76867;SDS011;66168;45.478;11.060;2023-02-03T08:23:30;43.80;;;23.80;;
76867;SDS011;66168;45.478;11.060;2023-02-03T08:25:56;46.80;;;23.70;;
76867;SDS011;66168;45.478;11.060;2023-02-03T08:28:23;48.30;;;24.80;;
76867;SDS011;66168;45.478;11.060;2023-02-03T08:30:50;52.50;;;25.00;;
76867;SDS011;66168;45.478;11.060;2023-02-03T08:33:17;52.90;;;25.90;;
76867;SDS011;66168;45.478;11.060;2023-02-03T08:35:44;48.50;;;26.30;;
76867;SDS011;66168;45.478;11.060;2023-02-03T08:38:15;50.90;;;26.40;;
76867;SDS011;66168;45.478;11.060;2023-02-03T08:40:42;60.60;;;27.90;;
76867;SDS011;66168;45.478;11.060;2023-02-03T08:43:09;60.80;;;30.80;;
76867;SDS011;66168;45.478;11.060;2023-02-03T08:45:38;55.70;;;29.20;;
76867;SDS011;66168;45.478;11.060;2023-02-03T08:48:05;57.70;;;30.30;;
76867;SDS011;66168;45.478;11.060;2023-02-03T08:50:32;60.20;;;30.30;;
76867;SDS011;66168;45.478;11.060;2023-02-03T08:52:59;58.70;;;29.50;;
76867;SDS011;66168;45.478;11.060;2023-02-03T08:55:26;54.30;;;29.70;;
76867;SDS011;66168;45.478;11.060;2023-02-03T08:57:53;48.40;;;26.70;;
76867;SDS011;66168;45.478;11.060;2023-02-03T09:00:19;49.00;;;26.90;;
76867;SDS011;66168;45.478;11.060;2023-02-03T09:02:46;50.10;;;28.00;;
76867;SDS011;66168;45.478;11.060;2023-02-03T09:05:13;58.50;;;29.90;;
76867;SDS011;66168;45.478;11.060;2023-02-03T09:07:43;59.90;;;31.90;;
76867;SDS011;66168;45.478;11.060;2023-02-03T09:10:10;50.70;;;28.60;;
76867;SDS011;66168;45.478;11.060;2023-02-03T09:12:37;58.70;;;30.00;;
76867;SDS011;66168;45.478;11.060;2023-02-03T09:15:04;53.90;;;29.80;;
76867;SDS011;66168;45.478;11.060;2023-02-03T09:17:31;50.20;;;27.40;;
76867;SDS011;66168;45.478;11.060;2023-02-03T09:19:57;56.60;;;30.00;;
76867;SDS011;66168;45.478;11.060;2023-02-03T09:22:24;48.70;;;28.40;;
76867;SDS011;66168;45.478;11.060;2023-02-03T09:24:51;48.70;;;27.00;;
76867;SDS011;66168;45.478;11.060;2023-02-03T09:27:17;47.30;;;26.80;;
76867;SDS011;66168;45.478;11.060;2023-02-03T09:29:44;50.70;;;27.80;;
76867;SDS011;66168;45.478;11.060;2023-02-03T09:32:11;45.70;;;25.30;;
76867;SDS011;66168;45.478;11.060;2023-02-03T09:34:40;54.90;;;30.70;;
76867;SDS011;66168;45.478;11.060;2023-02-03T09:37:07;53.00;;;31.90;;
76867;SDS011;66168;45.478;11.060;2023-02-03T09:39:34;59.30;;;32.70;;
76867;SDS011;66168;45.478;11.060;2023-02-03T09:47:21;63.20;;;32.20;;
76867;SDS011;66168;45.478;11.060;2023-02-03T09:58:02;57.30;;;33.40;;
76867;SDS011;66168;45.478;11.060;2023-02-03T10:00:34;50.30;;;27.50;;
76867;SDS011;66168;45.478;11.060;2023-02-03T10:03:05;59.30;;;31.30;;
76867;SDS011;66168;45.478;11.060;2023-02-03T10:08:34;50.20;;;27.30;;
76867;SDS011;66168;45.478;11.060;2023-02-03T10:11:22;51.60;;;26.70;;
76867;SDS011;66168;45.478;11.060;2023-02-03T10:19:24;66.30;;;35.00;;
76867;SDS011;66168;45.478;11.060;2023-02-03T10:21:59;62.60;;;32.90;;
76867;SDS011;66168;45.478;11.060;2023-02-03T10:24:45;60.50;;;34.40;;
76867;SDS011;66168;45.478;11.060;2023-02-03T10:27:16;56.00;;;28.30;;
76867;SDS011;66168;45.478;11.060;2023-02-03T10:29:47;57.70;;;32.20;;
76867;SDS011;66168;45.478;11.060;2023-02-03T10:32:23;58.00;;;33.00;;
76867;SDS011;66168;45.478;11.060;2023-02-03T10:34:53;64.10;;;34.90;;
76867;SDS011;66168;45.478;11.060;2023-02-03T10:37:25;68.10;;;37.90;;
76867;SDS011;66168;45.478;11.060;2023-02-03T10:39:56;79.70;;;42.60;;
76867;SDS011;66168;45.478;11.060;2023-02-03T10:42:26;77.30;;;43.40;;
76867;SDS011;66168;45.478;11.060;2023-02-03T10:45:15;80.40;;;44.50;;
76867;SDS011;66168;45.478;11.060;2023-02-03T10:47:43;76.20;;;41.30;;
76867;SDS011;66168;45.478;11.060;2023-02-03T10:50:23;81.20;;;43.70;;
76867;SDS011;66168;45.478;11.060;2023-02-03T10:55:42;77.30;;;42.50;;
76867;SDS011;66168;45.478;11.060;2023-02-03T10:58:15;73.20;;;37.20;;
76867;SDS011;66168;45.478;11.060;2023-02-03T11:01:02;67.00;;;35.10;;
76867;SDS011;66168;45.478;11.060;2023-02-03T11:03:32;65.40;;;34.00;;
76867;SDS011;66168;45.478;11.060;2023-02-03T11:06:09;77.70;;;40.20;;
76867;SDS011;66168;45.478;11.060;2023-02-03T11:08:42;75.20;;;41.20;;
76867;SDS011;66168;45.478;11.060;2023-02-03T11:11:19;73.20;;;40.60;;
76867;SDS011;66168;45.478;11.060;2023-02-03T11:16:29;76.00;;;39.80;;
76867;SDS011;66168;45.478;11.060;2023-02-03T11:19:20;73.00;;;40.10;;
76867;SDS011;66168;45.478;11.060;2023-02-03T11:21:50;76.60;;;39.00;;
76867;SDS011;66168;45.478;11.060;2023-02-03T11:24:20;77.40;;;40.50;;
76867;SDS011;66168;45.478;11.060;2023-02-03T11:29:23;75.30;;;38.30;;
76867;SDS011;66168;45.478;11.060;2023-02-03T11:31:54;80.20;;;43.60;;
76867;SDS011;66168;45.478;11.060;2023-02-03T11:34:27;83.40;;;45.20;;
76867;SDS011;66168;45.478;11.060;2023-02-03T11:36:56;86.20;;;45.10;;
76867;SDS011;66168;45.478;11.060;2023-02-03T11:39:27;78.00;;;41.20;;
76867;SDS011;66168;45.478;11.060;2023-02-03T11:41:55;80.70;;;42.10;;
76867;SDS011;66168;45.478;11.060;2023-02-03T11:44:26;80.90;;;45.00;;
76867;SDS011;66168;45.478;11.060;2023-02-03T11:47:00;83.50;;;46.00;;
76867;SDS011;66168;45.478;11.060;2023-02-03T11:55:15;84.90;;;44.20;;
76867;SDS011;66168;45.478;11.060;2023-02-03T12:00:53;75.80;;;41.60;;
76867;SDS011;66168;45.478;11.060;2023-02-03T12:06:52;83.70;;;44.50;;
76867;SDS011;66168;45.478;11.060;2023-02-03T12:15:18;87.60;;;47.90;;
76867;SDS011;66168;45.478;11.060;2023-02-03T12:26:29;87.30;;;44.00;;
76867;SDS011;66168;45.478;11.060;2023-02-03T12:29:07;86.20;;;47.10;;
76867;SDS011;66168;45.478;11.060;2023-02-03T12:31:41;89.20;;;46.50;;
76867;SDS011;66168;45.478;11.060;2023-02-03T12:34:23;84.70;;;43.10;;
76867;SDS011;66168;45.478;11.060;2023-02-03T12:36:54;92.30;;;46.30;;
76867;SDS011;66168;45.478;11.060;2023-02-03T12:39:25;83.50;;;44.90;;
76867;SDS011;66168;45.478;11.060;2023-02-03T12:41:59;103.10;;;48.60;;
76867;SDS011;66168;45.478;11.060;2023-02-03T12:44:34;96.30;;;48.70;;
76867;SDS011;66168;45.478;11.060;2023-02-03T12:47:23;78.10;;;39.20;;
76867;SDS011;66168;45.478;11.060;2023-02-03T12:49:53;87.90;;;44.20;;
76867;SDS011;66168;45.478;11.060;2023-02-03T12:52:26;89.00;;;45.80;;
76867;SDS011;66168;45.478;11.060;2023-02-03T12:55:15;85.70;;;44.70;;
76867;SDS011;66168;45.478;11.060;2023-02-03T12:58:05;91.00;;;45.80;;
76867;SDS011;66168;45.478;11.060;2023-02-03T13:00:45;87.60;;;42.50;;
76867;SDS011;66168;45.478;11.060;2023-02-03T13:03:25;85.10;;;44.00;;
76867;SDS011;66168;45.478;11.060;2023-02-03T13:17:19;89.70;;;44.90;;
76867;SDS011;66168;45.478;11.060;2023-02-03T13:19:54;86.70;;;43.20;;
76867;SDS011;66168;45.478;11.060;2023-02-03T13:22:24;89.60;;;45.30;;
76867;SDS011;66168;45.478;11.060;2023-02-03T13:24:56;75.60;;;39.00;;
76867;SDS011;66168;45.478;11.060;2023-02-03T13:27:36;86.10;;;44.30;;
76867;SDS011;66168;45.478;11.060;2023-02-03T13:44:00;73.60;;;38.60;;
76867;SDS011;66168;45.478;11.060;2023-02-03T13:46:30;84.30;;;42.40;;
76867;SDS011;66168;45.478;11.060;2023-02-03T13:49:00;93.40;;;47.70;;
76867;SDS011;66168;45.478;11.060;2023-02-03T13:51:36;89.70;;;44.10;;
76867;SDS011;66168;45.478;11.060;2023-02-03T13:54:31;83.70;;;40.00;;
76867;SDS011;66168;45.478;11.060;2023-02-03T13:57:01;67.90;;;33.60;;
76867;SDS011;66168;45.478;11.060;2023-02-03T14:07:45;81.40;;;39.80;;
76867;SDS011;66168;45.478;11.060;2023-02-03T14:12:38;81.70;;;39.80;;
76867;SDS011;66168;45.478;11.060;2023-02-03T14:20:40;96.20;;;45.30;;
76867;SDS011;66168;45.478;11.060;2023-02-03T14:23:16;83.10;;;40.60;;
76867;SDS011;66168;45.478;11.060;2023-02-03T14:25:51;85.70;;;43.10;;
76867;SDS011;66168;45.478;11.060;2023-02-03T14:28:24;91.50;;;41.90;;
76867;SDS011;66168;45.478;11.060;2023-02-03T14:33:56;69.80;;;32.60;;
76867;SDS011;66168;45.478;11.060;2023-02-03T14:39:00;96.50;;;46.60;;
76867;SDS011;66168;45.478;11.060;2023-02-03T14:41:37;97.30;;;49.10;;
76867;SDS011;66168;45.478;11.060;2023-02-03T14:49:28;101.10;;;46.10;;
76867;SDS011;66168;45.478;11.060;2023-02-03T14:52:14;90.30;;;42.00;;
76867;SDS011;66168;45.478;11.060;2023-02-03T14:57:50;96.20;;;46.50;;
76867;SDS011;66168;45.478;11.060;2023-02-03T15:08:28;93.60;;;43.50;;
76867;SDS011;66168;45.478;11.060;2023-02-03T15:11:14;96.40;;;46.80;;
76867;SDS011;66168;45.478;11.060;2023-02-03T15:13:48;106.70;;;49.50;;
76867;SDS011;66168;45.478;11.060;2023-02-03T15:16:17;111.90;;;51.60;;
76867;SDS011;66168;45.478;11.060;2023-02-03T15:18:51;111.90;;;52.60;;
76867;SDS011;66168;45.478;11.060;2023-02-03T15:21:19;106.30;;;51.40;;
76867;SDS011;66168;45.478;11.060;2023-02-03T15:23:47;97.80;;;50.30;;
76867;SDS011;66168;45.478;11.060;2023-02-03T15:26:16;107.30;;;50.80;;
76867;SDS011;66168;45.478;11.060;2023-02-03T15:28:55;108.40;;;52.70;;
76867;SDS011;66168;45.478;11.060;2023-02-03T15:31:36;109.50;;;54.70;;
76867;SDS011;66168;45.478;11.060;2023-02-03T15:36:53;99.90;;;48.90;;
76867;SDS011;66168;45.478;11.060;2023-02-03T15:44:42;94.60;;;45.70;;
76867;SDS011;66168;45.478;11.060;2023-02-03T15:47:29;100.10;;;48.30;;
76867;SDS011;66168;45.478;11.060;2023-02-03T15:50:04;95.80;;;47.60;;
76867;SDS011;66168;45.478;11.060;2023-02-03T15:52:41;101.00;;;48.50;;
76867;SDS011;66168;45.478;11.060;2023-02-03T15:55:23;102.90;;;49.80;;
76867;SDS011;66168;45.478;11.060;2023-02-03T15:58:02;109.50;;;52.40;;
76867;SDS011;66168;45.478;11.060;2023-02-03T16:00:34;99.60;;;51.20;;
76867;SDS011;66168;45.478;11.060;2023-02-03T16:03:04;117.20;;;53.30;;
76867;SDS011;66168;45.478;11.060;2023-02-03T16:05:40;122.50;;;56.30;;
76867;SDS011;66168;45.478;11.060;2023-02-03T16:13:51;118.40;;;58.40;;
76867;SDS011;66168;45.478;11.060;2023-02-03T16:16:25;119.40;;;57.40;;
76867;SDS011;66168;45.478;11.060;2023-02-03T16:18:56;125.30;;;59.00;;
76867;SDS011;66168;45.478;11.060;2023-02-03T16:29:54;106.80;;;51.70;;
76867;SDS011;66168;45.478;11.060;2023-02-03T16:35:57;111.10;;;52.40;;
76867;SDS011;66168;45.478;11.060;2023-02-03T16:38:46;102.00;;;50.70;;
76867;SDS011;66168;45.478;11.060;2023-02-03T16:41:32;104.90;;;49.90;;
76867;SDS011;66168;45.478;11.060;2023-02-03T16:44:18;107.70;;;51.80;;
76867;SDS011;66168;45.478;11.060;2023-02-03T16:47:08;104.60;;;50.60;;
76867;SDS011;66168;45.478;11.060;2023-02-03T16:50:10;105.80;;;51.00;;
76867;SDS011;66168;45.478;11.060;2023-02-03T16:53:10;110.50;;;52.20;;
76867;SDS011;66168;45.478;11.060;2023-02-03T16:55:39;104.30;;;50.50;;
76867;SDS011;66168;45.478;11.060;2023-02-03T16:58:06;102.60;;;48.70;;
76867;SDS011;66168;45.478;11.060;2023-02-03T17:00:34;105.40;;;52.70;;
76867;SDS011;66168;45.478;11.060;2023-02-03T17:03:04;105.20;;;49.40;;
76867;SDS011;66168;45.478;11.060;2023-02-03T17:05:30;95.50;;;46.90;;
76867;SDS011;66168;45.478;11.060;2023-02-03T17:08:03;102.60;;;47.10;;
76867;SDS011;66168;45.478;11.060;2023-02-03T17:10:34;102.30;;;48.30;;
76867;SDS011;66168;45.478;11.060;2023-02-03T17:13:05;112.40;;;60.00;;
76867;SDS011;66168;45.478;11.060;2023-02-03T17:15:33;151.10;;;76.80;;
76867;SDS011;66168;45.478;11.060;2023-02-03T17:18:04;106.70;;;52.70;;
76867;SDS011;66168;45.478;11.060;2023-02-03T17:20:31;122.80;;;60.80;;
76867;SDS011;66168;45.478;11.060;2023-02-03T17:22:58;113.90;;;51.80;;
76867;SDS011;66168;45.478;11.060;2023-02-03T17:25:24;107.70;;;50.20;;
76867;SDS011;66168;45.478;11.060;2023-02-03T17:27:51;113.00;;;52.30;;
76867;SDS011;66168;45.478;11.060;2023-02-03T17:30:18;107.80;;;52.10;;
76867;SDS011;66168;45.478;11.060;2023-02-03T17:32:45;101.80;;;50.10;;
76867;SDS011;66168;45.478;11.060;2023-02-03T17:35:11;111.70;;;53.60;;